sensor_id;sensor_type;location;lat;lon;timestamp;pressure;altitude;pressure_sealevel;temperature;humidity
25084;BME280;13075;55.682;37.564;2023-01-24T00:00:51;101734.41;;;3.15;100.00
25084;BME280;13075;55.682;37.564;2023-01-24T00:03:17;101728.81;;;3.47;100.00
25084;BME280;13075;55.682;37.564;2023-01-24T00:05:44;101733.56;;;3.42;100.00
25084;BME280;13075;55.682;37.564;2023-01-24T00:08:12;101739.75;;;2.87;100.00
25084;BME280;13075;55.682;37.564;2023-01-24T00:10:38;101731.50;;;3.06;100.00
25084;BME280;13075;55.682;37.564;2023-01-24T00:13:05;101730.84;;;3.02;100.00
25084;BME280;13075;55.682;37.564;2023-01-24T00:15:31;101729.47;;;3.24;100.00
25084;BME280;13075;55.682;37.564;2023-01-24T00:17:57;101732.06;;;3.11;100.00
25084;BME280;13075;55.682;37.564;2023-01-24T00:20:23;101734.06;;;3.34;100.00
25084;BME280;13075;55.682;37.564;2023-01-24T00:22:48;101730.56;;;3.07;100.00
25084;BME280;13075;55.682;37.564;2023-01-24T00:25:14;101726.06;;;3.22;100.00
25084;BME280;13075;55.682;37.564;2023-01-24T00:27:40;101722.94;;;3.29;100.00
25084;BME280;13075;55.682;37.564;2023-01-24T00:30:06;101724.00;;;3.12;100.00
25084;BME280;13075;55.682;37.564;2023-01-24T00:32:32;101722.34;;;3.11;100.00
25084;BME280;13075;55.682;37.564;2023-01-24T00:34:58;101723.44;;;2.81;100.00
25084;BME280;13075;55.682;37.564;2023-01-24T00:37:24;101730.09;;;3.00;100.00
25084;BME280;13075;55.682;37.564;2023-01-24T00:39:49;101711.06;;;3.22;100.00
25084;BME280;13075;55.682;37.564;2023-01-24T00:42:15;101723.56;;;3.06;100.00
25084;BME280;13075;55.682;37.564;2023-01-24T00:44:42;101722.00;;;2.89;100.00
25084;BME280;13075;55.682;37.564;2023-01-24T00:47:08;101720.88;;;2.79;100.00
25084;BME280;13075;55.682;37.564;2023-01-24T00:49:34;101725.69;;;2.87;100.00
25084;BME280;13075;55.682;37.564;2023-01-24T00:52:00;101723.44;;;2.81;100.00
25084;BME280;13075;55.682;37.564;2023-01-24T00:54:25;101717.31;;;2.80;100.00
25084;BME280;13075;55.682;37.564;2023-01-24T00:56:51;101719.09;;;2.80;100.00
25084;BME280;13075;55.682;37.564;2023-01-24T00:59:16;101719.66;;;2.85;100.00
25084;BME280;13075;55.682;37.564;2023-01-24T01:01:42;101713.00;;;3.06;100.00
25084;BME280;13075;55.682;37.564;2023-01-24T01:04:09;101709.69;;;3.02;100.00
25084;BME280;13075;55.682;37.564;2023-01-24T01:06:35;101711.97;;;2.94;100.00
25084;BME280;13075;55.682;37.564;2023-01-24T01:09:01;101708.25;;;3.11;100.00
25084;BME280;13075;55.682;37.564;2023-01-24T01:11:26;101703.59;;;2.88;100.00
25084;BME280;13075;55.682;37.564;2023-01-24T01:13:56;101699.97;;;3.03;100.00
25084;BME280;13075;55.682;37.564;2023-01-24T01:16:23;101695.97;;;3.10;100.00
25084;BME280;13075;55.682;37.564;2023-01-24T01:18:52;101700.47;;;2.95;100.00
25084;BME280;13075;55.682;37.564;2023-01-24T01:21:20;101697.81;;;2.95;100.00
25084;BME280;13075;55.682;37.564;2023-01-24T01:23:46;101683.94;;;2.92;100.00
25084;BME280;13075;55.682;37.564;2023-01-24T01:26:17;101685.56;;;3.21;100.00
25084;BME280;13075;55.682;37.564;2023-01-24T01:28:43;101688.28;;;2.93;100.00
25084;BME280;13075;55.682;37.564;2023-01-24T01:31:12;101693.78;;;3.17;100.00
25084;BME280;13075;55.682;37.564;2023-01-24T01:33:38;101687.59;;;3.03;100.00
25084;BME280;13075;55.682;37.564;2023-01-24T01:36:04;101688.66;;;3.01;100.00
25084;BME280;13075;55.682;37.564;2023-01-24T01:38:30;101687.84;;;2.86;100.00
25084;BME280;13075;55.682;37.564;2023-01-24T01:40:57;101680.09;;;3.10;100.00
25084;BME280;13075;55.682;37.564;2023-01-24T01:43:26;101680.03;;;3.11;100.00
25084;BME280;13075;55.682;37.564;2023-01-24T01:45:54;101681.19;;;3.20;100.00
25084;BME280;13075;55.682;37.564;2023-01-24T01:48:33;101679.31;;;3.22;100.00
25084;BME280;13075;55.682;37.564;2023-01-24T01:51:27;101679.66;;;3.30;100.00
25084;BME280;13075;55.682;37.564;2023-01-24T01:54:02;101684.63;;;3.22;100.00
25084;BME280;13075;55.682;37.564;2023-01-24T01:59:18;101679.31;;;3.22;100.00
25084;BME280;13075;55.682;37.564;2023-01-24T02:01:45;101672.63;;;3.17;100.00
25084;BME280;13075;55.682;37.564;2023-01-24T02:04:17;101671.56;;;2.92;100.00
25084;BME280;13075;55.682;37.564;2023-01-24T02:06:55;101676.81;;;2.80;100.00
25084;BME280;13075;55.682;37.564;2023-01-24T02:09:27;101677.78;;;2.65;100.00
25084;BME280;13075;55.682;37.564;2023-01-24T02:11:57;101689.94;;;2.81;100.00
25084;BME280;13075;55.682;37.564;2023-01-24T02:14:26;101686.38;;;2.68;100.00
25084;BME280;13075;55.682;37.564;2023-01-24T02:17:11;101688.59;;;2.88;100.00
25084;BME280;13075;55.682;37.564;2023-01-24T02:19:55;101682.44;;;2.88;100.00
25084;BME280;13075;55.682;37.564;2023-01-24T02:27:47;101677.47;;;2.83;100.00
25084;BME280;13075;55.682;37.564;2023-01-24T02:30:12;101672.28;;;3.08;100.00
25084;BME280;13075;55.682;37.564;2023-01-24T02:32:38;101675.22;;;3.04;100.00
25084;BME280;13075;55.682;37.564;2023-01-24T02:35:04;101679.72;;;3.16;100.00
25084;BME280;13075;55.682;37.564;2023-01-24T02:37:32;101672.25;;;2.82;100.00
25084;BME280;13075;55.682;37.564;2023-01-24T02:40:06;101674.19;;;3.06;100.00
25084;BME280;13075;55.682;37.564;2023-01-24T02:42:35;101677.22;;;3.00;100.00
25084;BME280;13075;55.682;37.564;2023-01-24T02:45:09;101680.47;;;3.18;100.00
25084;BME280;13075;55.682;37.564;2023-01-24T02:47:40;101676.59;;;3.36;100.00
25084;BME280;13075;55.682;37.564;2023-01-24T02:50:07;101666.72;;;3.26;100.00
25084;BME280;13075;55.682;37.564;2023-01-24T02:52:34;101659.19;;;3.07;100.00
25084;BME280;13075;55.682;37.564;2023-01-24T02:55:18;101662.59;;;3.22;100.00
25084;BME280;13075;55.682;37.564;2023-01-24T02:57:43;101656.53;;;3.07;100.00
25084;BME280;13075;55.682;37.564;2023-01-24T03:00:27;101666.94;;;3.23;100.00
25084;BME280;13075;55.682;37.564;2023-01-24T03:02:53;101657.69;;;3.15;100.00
25084;BME280;13075;55.682;37.564;2023-01-24T03:05:19;101649.78;;;3.15;100.00
25084;BME280;13075;55.682;37.564;2023-01-24T03:07:44;101647.13;;;3.15;100.00
25084;BME280;13075;55.682;37.564;2023-01-24T03:10:16;101645.44;;;3.14;100.00
25084;BME280;13075;55.682;37.564;2023-01-24T03:12:46;101637.41;;;3.16;100.00
25084;BME280;13075;55.682;37.564;2023-01-24T03:15:30;101644.13;;;3.34;100.00
25084;BME280;13075;55.682;37.564;2023-01-24T03:18:14;101636.13;;;3.48;100.00
25084;BME280;13075;55.682;37.564;2023-01-24T03:20:58;101624.84;;;3.20;100.00
25084;BME280;13075;55.682;37.564;2023-01-24T03:23:42;101635.25;;;3.48;100.00
25084;BME280;13075;55.682;37.564;2023-01-24T03:26:26;101628.72;;;3.14;100.00
25084;BME280;13075;55.682;37.564;2023-01-24T03:29:11;101635.94;;;3.25;100.00
25084;BME280;13075;55.682;37.564;2023-01-24T03:31:56;101634.75;;;3.16;100.00
25084;BME280;13075;55.682;37.564;2023-01-24T03:34:40;101636.47;;;2.90;100.00
25084;BME280;13075;55.682;37.564;2023-01-24T03:37:20;101634.59;;;3.05;100.00
25084;BME280;13075;55.682;37.564;2023-01-24T03:40:09;101623.13;;;3.19;100.00
25084;BME280;13075;55.682;37.564;2023-01-24T03:42:35;101622.00;;;2.96;100.00
25084;BME280;13075;55.682;37.564;2023-01-24T03:45:19;101621.47;;;2.91;100.00
25084;BME280;13075;55.682;37.564;2023-01-24T03:47:52;101621.34;;;3.32;100.00
25084;BME280;13075;55.682;37.564;2023-01-24T03:50:36;101623.06;;;2.93;100.00
25084;BME280;13075;55.682;37.564;2023-01-24T03:53:26;101627.53;;;2.79;100.00
25084;BME280;13075;55.682;37.564;2023-01-24T03:55:54;101625.00;;;2.77;100.00
25084;BME280;13075;55.682;37.564;2023-01-24T03:58:21;101621.81;;;2.99;100.00
25084;BME280;13075;55.682;37.564;2023-01-24T04:00:47;101618.75;;;3.05;100.00
25084;BME280;13075;55.682;37.564;2023-01-24T04:03:42;101625.03;;;3.17;100.00
25084;BME280;13075;55.682;37.564;2023-01-24T04:06:07;101620.28;;;2.95;100.00
25084;BME280;13075;55.682;37.564;2023-01-24T04:08:33;101628.88;;;2.98;100.00
25084;BME280;13075;55.682;37.564;2023-01-24T04:10:59;101626.59;;;2.80;100.00
25084;BME280;13075;55.682;37.564;2023-01-24T04:13:25;101625.91;;;2.76;100.00
25084;BME280;13075;55.682;37.564;2023-01-24T04:15:51;101626.41;;;2.83;100.00
25084;BME280;13075;55.682;37.564;2023-01-24T04:18:28;101621.56;;;2.48;100.00
25084;BME280;13075;55.682;37.564;2023-01-24T04:20:53;101618.72;;;2.66;100.00
25084;BME280;13075;55.682;37.564;2023-01-24T04:23:20;101622.97;;;2.68;100.00
25084;BME280;13075;55.682;37.564;2023-01-24T04:25:50;101612.59;;;2.51;100.00
25084;BME280;13075;55.682;37.564;2023-01-24T04:28:20;101619.59;;;2.52;100.00
25084;BME280;13075;55.682;37.564;2023-01-24T04:30:47;101617.63;;;2.27;100.00
25084;BME280;13075;55.682;37.564;2023-01-24T04:33:27;101610.44;;;2.43;100.00
25084;BME280;13075;55.682;37.564;2023-01-24T04:35:58;101619.06;;;2.33;100.00
25084;BME280;13075;55.682;37.564;2023-01-24T04:38:24;101613.56;;;2.36;100.00
25084;BME280;13075;55.682;37.564;2023-01-24T04:41:10;101603.50;;;2.28;100.00
25084;BME280;13075;55.682;37.564;2023-01-24T04:43:41;101615.22;;;2.24;100.00
25084;BME280;13075;55.682;37.564;2023-01-24T04:46:07;101618.63;;;2.53;100.00
25084;BME280;13075;55.682;37.564;2023-01-24T04:48:49;101610.63;;;2.40;100.00
25084;BME280;13075;55.682;37.564;2023-01-24T04:51:14;101618.50;;;2.28;100.00
25084;BME280;13075;55.682;37.564;2023-01-24T04:53:41;101606.31;;;2.25;100.00
25084;BME280;13075;55.682;37.564;2023-01-24T04:56:09;101616.50;;;2.31;100.00
25084;BME280;13075;55.682;37.564;2023-01-24T04:58:36;101612.88;;;2.06;100.00
25084;BME280;13075;55.682;37.564;2023-01-24T05:01:03;101611.91;;;2.07;100.00
25084;BME280;13075;55.682;37.564;2023-01-24T05:03:30;101607.94;;;2.00;100.00
25084;BME280;13075;55.682;37.564;2023-01-24T05:05:56;101610.69;;;2.26;100.00
25084;BME280;13075;55.682;37.564;2023-01-24T05:08:22;101607.78;;;2.17;100.00
25084;BME280;13075;55.682;37.564;2023-01-24T05:10:47;101604.28;;;2.16;100.00
25084;BME280;13075;55.682;37.564;2023-01-24T05:13:14;101599.50;;;2.35;100.00
25084;BME280;13075;55.682;37.564;2023-01-24T05:15:50;101606.13;;;2.28;100.00
25084;BME280;13075;55.682;37.564;2023-01-24T05:18:17;101606.19;;;2.55;100.00
25084;BME280;13075;55.682;37.564;2023-01-24T05:20:44;101614.81;;;2.44;100.00
25084;BME280;13075;55.682;37.564;2023-01-24T05:23:11;101609.09;;;2.65;100.00
25084;BME280;13075;55.682;37.564;2023-01-24T05:25:41;101607.38;;;2.37;100.00
25084;BME280;13075;55.682;37.564;2023-01-24T05:28:06;101596.50;;;2.41;100.00
25084;BME280;13075;55.682;37.564;2023-01-24T05:30:39;101604.59;;;2.79;100.00
25084;BME280;13075;55.682;37.564;2023-01-24T05:33:16;101594.28;;;2.62;100.00
25084;BME280;13075;55.682;37.564;2023-01-24T05:35:42;101596.19;;;2.60;100.00
25084;BME280;13075;55.682;37.564;2023-01-24T05:38:10;101598.31;;;2.68;100.00
25084;BME280;13075;55.682;37.564;2023-01-24T05:40:37;101596.19;;;2.60;100.00
25084;BME280;13075;55.682;37.564;2023-01-24T05:43:03;101597.41;;;2.55;100.00
25084;BME280;13075;55.682;37.564;2023-01-24T05:45:30;101590.88;;;2.60;100.00
25084;BME280;13075;55.682;37.564;2023-01-24T05:47:57;101595.06;;;2.50;100.00
25084;BME280;13075;55.682;37.564;2023-01-24T05:50:23;101589.50;;;2.55;100.00
25084;BME280;13075;55.682;37.564;2023-01-24T05:53:08;101587.00;;;2.25;100.00
25084;BME280;13075;55.682;37.564;2023-01-24T05:55:34;101580.75;;;2.40;100.00
25084;BME280;13075;55.682;37.564;2023-01-24T05:58:00;101588.22;;;2.33;100.00
25084;BME280;13075;55.682;37.564;2023-01-24T06:00:35;101578.38;;;2.49;100.00
25084;BME280;13075;55.682;37.564;2023-01-24T06:03:21;101589.72;;;2.64;100.00
25084;BME280;13075;55.682;37.564;2023-01-24T06:05:50;101577.31;;;2.79;100.00
25084;BME280;13075;55.682;37.564;2023-01-24T06:08:17;101580.91;;;2.78;100.00
25084;BME280;13075;55.682;37.564;2023-01-24T06:10:43;101572.09;;;2.91;100.00
25084;BME280;13075;55.682;37.564;2023-01-24T06:13:11;101576.16;;;3.09;100.00
25084;BME280;13075;55.682;37.564;2023-01-24T06:15:37;101573.91;;;2.77;100.00
25084;BME280;13075;55.682;37.564;2023-01-24T06:18:05;101582.69;;;2.77;100.00
25084;BME280;13075;55.682;37.564;2023-01-24T06:20:32;101582.19;;;2.85;100.00
25084;BME280;13075;55.682;37.564;2023-01-24T06:23:06;101580.09;;;2.36;100.00
25084;BME280;13075;55.682;37.564;2023-01-24T06:25:37;101588.19;;;2.47;100.00
25084;BME280;13075;55.682;37.564;2023-01-24T06:28:03;101575.97;;;2.59;100.00
25084;BME280;13075;55.682;37.564;2023-01-24T06:30:29;101575.22;;;2.84;100.00
25084;BME280;13075;55.682;37.564;2023-01-24T06:38:22;101578.97;;;2.67;100.00
25084;BME280;13075;55.682;37.564;2023-01-24T06:40:52;101563.56;;;2.47;100.00
25084;BME280;13075;55.682;37.564;2023-01-24T06:43:19;101559.72;;;2.38;100.00
25084;BME280;13075;55.682;37.564;2023-01-24T06:45:45;101562.16;;;2.41;100.00
25084;BME280;13075;55.682;37.564;2023-01-24T06:48:11;101566.94;;;2.49;100.00
25084;BME280;13075;55.682;37.564;2023-01-24T06:50:36;101574.41;;;2.69;100.00
25084;BME280;13075;55.682;37.564;2023-01-24T06:53:02;101563.19;;;2.92;100.00
25084;BME280;13075;55.682;37.564;2023-01-24T06:55:27;101572.31;;;3.01;100.00
25084;BME280;13075;55.682;37.564;2023-01-24T06:57:57;101564.03;;;2.93;100.00
25084;BME280;13075;55.682;37.564;2023-01-24T07:00:23;101557.22;;;3.28;100.00
25084;BME280;13075;55.682;37.564;2023-01-24T07:02:59;101565.06;;;3.17;100.00
25084;BME280;13075;55.682;37.564;2023-01-24T07:05:26;101575.13;;;3.25;100.00
25084;BME280;13075;55.682;37.564;2023-01-24T07:07:52;101571.09;;;3.44;100.00
25084;BME280;13075;55.682;37.564;2023-01-24T07:10:17;101575.22;;;3.99;100.00
25084;BME280;13075;55.682;37.564;2023-01-24T07:12:43;101568.88;;;3.89;100.00
25084;BME280;13075;55.682;37.564;2023-01-24T07:15:09;101567.34;;;4.22;100.00
25084;BME280;13075;55.682;37.564;2023-01-24T07:17:35;101571.94;;;3.70;100.00
25084;BME280;13075;55.682;37.564;2023-01-24T07:20:01;101574.03;;;4.15;100.00
25084;BME280;13075;55.682;37.564;2023-01-24T07:22:27;101562.28;;;4.07;100.00
25084;BME280;13075;55.682;37.564;2023-01-24T07:24:53;101576.44;;;4.18;100.00
25084;BME280;13075;55.682;37.564;2023-01-24T07:27:19;101579.31;;;4.03;100.00
25084;BME280;13075;55.682;37.564;2023-01-24T07:29:45;101571.91;;;4.08;100.00
25084;BME280;13075;55.682;37.564;2023-01-24T07:32:11;101574.31;;;4.36;100.00
25084;BME280;13075;55.682;37.564;2023-01-24T07:34:38;101563.31;;;4.17;100.00
25084;BME280;13075;55.682;37.564;2023-01-24T07:37:06;101560.28;;;3.85;100.00
25084;BME280;13075;55.682;37.564;2023-01-24T07:39:32;101571.72;;;3.98;100.00
25084;BME280;13075;55.682;37.564;2023-01-24T07:41:58;101574.47;;;4.09;100.00
25084;BME280;13075;55.682;37.564;2023-01-24T07:44:23;101576.28;;;3.96;100.00
25084;BME280;13075;55.682;37.564;2023-01-24T07:46:49;101577.88;;;3.99;100.00
25084;BME280;13075;55.682;37.564;2023-01-24T07:49:14;101564.22;;;3.67;100.00
25084;BME280;13075;55.682;37.564;2023-01-24T07:51:40;101577.25;;;3.45;100.00
25084;BME280;13075;55.682;37.564;2023-01-24T07:54:06;101575.66;;;3.67;100.00
25084;BME280;13075;55.682;37.564;2023-01-24T07:56:31;101575.53;;;3.56;100.00
25084;BME280;13075;55.682;37.564;2023-01-24T07:58:57;101573.66;;;3.84;100.00
25084;BME280;13075;55.682;37.564;2023-01-24T08:01:24;101579.25;;;3.92;100.00
25084;BME280;13075;55.682;37.564;2023-01-24T08:03:54;101573.13;;;3.66;100.00
25084;BME280;13075;55.682;37.564;2023-01-24T08:06:20;101571.34;;;3.66;100.00
25084;BME280;13075;55.682;37.564;2023-01-24T08:08:46;101576.53;;;3.68;100.00
25084;BME280;13075;55.682;37.564;2023-01-24T08:11:11;101577.34;;;3.43;100.00
25084;BME280;13075;55.682;37.564;2023-01-24T08:13:41;101578.81;;;4.10;100.00
25084;BME280;13075;55.682;37.564;2023-01-24T08:16:07;101570.47;;;3.78;100.00
25084;BME280;13075;55.682;37.564;2023-01-24T08:18:33;101564.63;;;3.99;100.00
25084;BME280;13075;55.682;37.564;2023-01-24T08:20:59;101564.50;;;4.13;100.00
25084;BME280;13075;55.682;37.564;2023-01-24T08:23:24;101557.84;;;4.44;100.00
25084;BME280;13075;55.682;37.564;2023-01-24T08:25:50;101554.91;;;4.35;100.00
25084;BME280;13075;55.682;37.564;2023-01-24T08:28:16;101566.41;;;4.11;100.00
25084;BME280;13075;55.682;37.564;2023-01-24T08:30:42;101564.19;;;4.05;100.00
25084;BME280;13075;55.682;37.564;2023-01-24T08:33:08;101556.28;;;4.28;100.00
25084;BME280;13075;55.682;37.564;2023-01-24T08:35:36;101561.06;;;4.23;100.00
25084;BME280;13075;55.682;37.564;2023-01-24T08:38:01;101558.75;;;4.55;100.00
25084;BME280;13075;55.682;37.564;2023-01-24T08:40:27;101555.56;;;4.26;100.00
25084;BME280;13075;55.682;37.564;2023-01-24T08:42:53;101557.78;;;4.32;100.00
25084;BME280;13075;55.682;37.564;2023-01-24T08:45:18;101545.66;;;4.41;100.00
25084;BME280;13075;55.682;37.564;2023-01-24T08:47:44;101548.53;;;4.38;100.00
25084;BME280;13075;55.682;37.564;2023-01-24T08:50:10;101537.31;;;4.34;100.00
25084;BME280;13075;55.682;37.564;2023-01-24T08:52:36;101521.78;;;4.65;100.00
25084;BME280;13075;55.682;37.564;2023-01-24T08:55:01;101528.56;;;4.69;100.00
25084;BME280;13075;55.682;37.564;2023-01-24T08:57:27;101519.09;;;4.77;100.00
25084;BME280;13075;55.682;37.564;2023-01-24T08:59:52;101522.13;;;4.84;100.00
25084;BME280;13075;55.682;37.564;2023-01-24T09:02:18;101515.13;;;4.83;100.00
25084;BME280;13075;55.682;37.564;2023-01-24T09:04:44;101514.84;;;5.10;100.00
25084;BME280;13075;55.682;37.564;2023-01-24T09:07:12;101506.63;;;5.01;100.00
25084;BME280;13075;55.682;37.564;2023-01-24T09:09:38;101497.63;;;5.15;100.00
25084;BME280;13075;55.682;37.564;2023-01-24T09:12:04;101495.66;;;5.06;100.00
25084;BME280;13075;55.682;37.564;2023-01-24T09:14:30;101500.47;;;4.90;100.00
25084;BME280;13075;55.682;37.564;2023-01-24T09:16:56;101496.69;;;4.81;100.00
25084;BME280;13075;55.682;37.564;2023-01-24T09:19:21;101495.97;;;5.36;100.00
25084;BME280;13075;55.682;37.564;2023-01-24T09:21:47;101498.72;;;5.35;100.00
25084;BME280;13075;55.682;37.564;2023-01-24T09:24:18;101497.25;;;5.20;100.00
25084;BME280;13075;55.682;37.564;2023-01-24T09:26:44;101504.13;;;4.76;100.00
25084;BME280;13075;55.682;37.564;2023-01-24T09:29:10;101494.06;;;4.58;100.00
25084;BME280;13075;55.682;37.564;2023-01-24T09:31:36;101488.72;;;5.16;100.00
25084;BME280;13075;55.682;37.564;2023-01-24T09:34:02;101480.41;;;4.86;100.00
25084;BME280;13075;55.682;37.564;2023-01-24T09:36:28;101491.00;;;4.75;100.00
25084;BME280;13075;55.682;37.564;2023-01-24T09:38:55;101498.25;;;4.84;100.00
25084;BME280;13075;55.682;37.564;2023-01-24T09:44:02;101495.97;;;4.79;100.00
25084;BME280;13075;55.682;37.564;2023-01-24T09:46:45;101492.59;;;4.88;100.00
25084;BME280;13075;55.682;37.564;2023-01-24T09:51:58;101494.88;;;4.82;100.00
25084;BME280;13075;55.682;37.564;2023-01-24T09:56:57;101484.03;;;5.31;100.00
25084;BME280;13075;55.682;37.564;2023-01-24T09:59:37;101470.78;;;4.96;100.00
25084;BME280;13075;55.682;37.564;2023-01-24T10:02:16;101474.75;;;4.79;100.00
25084;BME280;13075;55.682;37.564;2023-01-24T10:04:44;101466.59;;;5.04;100.00
25084;BME280;13075;55.682;37.564;2023-01-24T10:10:04;101464.53;;;4.97;100.00
25084;BME280;13075;55.682;37.564;2023-01-24T10:17:58;101457.59;;;5.18;100.00
25084;BME280;13075;55.682;37.564;2023-01-24T10:23:10;101453.75;;;4.76;100.00
25084;BME280;13075;55.682;37.564;2023-01-24T10:28:40;101447.16;;;4.82;100.00
25084;BME280;13075;55.682;37.564;2023-01-24T10:33:46;101440.38;;;4.67;100.00
25084;BME280;13075;55.682;37.564;2023-01-24T10:39:00;101432.50;;;4.65;100.00
25084;BME280;13075;55.682;37.564;2023-01-24T10:41:29;101431.28;;;5.15;100.00
25084;BME280;13075;55.682;37.564;2023-01-24T10:44:01;101417.16;;;4.92;100.00
25084;BME280;13075;55.682;37.564;2023-01-24T10:46:46;101414.63;;;4.91;100.00
25084;BME280;13075;55.682;37.564;2023-01-24T10:49:22;101418.56;;;4.74;100.00
25084;BME280;13075;55.682;37.564;2023-01-24T10:52:12;101408.03;;;5.08;100.00
25084;BME280;13075;55.682;37.564;2023-01-24T10:57:42;101396.31;;;4.99;100.00
25084;BME280;13075;55.682;37.564;2023-01-24T11:02:54;101396.66;;;5.17;100.00
25084;BME280;13075;55.682;37.564;2023-01-24T11:05:21;101392.09;;;4.96;100.00
25084;BME280;13075;55.682;37.564;2023-01-24T11:07:59;101394.09;;;4.71;100.00
25084;BME280;13075;55.682;37.564;2023-01-24T11:10:27;101390.00;;;4.78;100.00
25084;BME280;13075;55.682;37.564;2023-01-24T11:12:56;101383.53;;;5.04;100.00
25084;BME280;13075;55.682;37.564;2023-01-24T11:15:28;101380.00;;;5.59;100.00
25084;BME280;13075;55.682;37.564;2023-01-24T11:18:06;101385.81;;;5.20;100.00
25084;BME280;13075;55.682;37.564;2023-01-24T11:20:35;101370.38;;;5.14;100.00
25084;BME280;13075;55.682;37.564;2023-01-24T11:23:17;101377.81;;;4.75;100.00
25084;BME280;13075;55.682;37.564;2023-01-24T11:28:34;101361.44;;;4.81;100.00
25084;BME280;13075;55.682;37.564;2023-01-24T11:31:07;101369.66;;;5.23;100.00
25084;BME280;13075;55.682;37.564;2023-01-24T11:40:16;101352.41;;;5.17;100.00
25084;BME280;13075;55.682;37.564;2023-01-24T11:50:39;101345.75;;;5.45;100.00
25084;BME280;13075;55.682;37.564;2023-01-24T11:53:24;101357.00;;;5.26;100.00
25084;BME280;13075;55.682;37.564;2023-01-24T11:59:07;101344.09;;;5.22;100.00
25084;BME280;13075;55.682;37.564;2023-01-24T12:01:47;101337.44;;;5.49;100.00
25084;BME280;13075;55.682;37.564;2023-01-24T12:07:17;101329.63;;;5.26;100.00
25084;BME280;13075;55.682;37.564;2023-01-24T12:22:59;101320.34;;;5.31;100.00
25084;BME280;13075;55.682;37.564;2023-01-24T12:25:32;101317.34;;;5.02;100.00
25084;BME280;13075;55.682;37.564;2023-01-24T12:28:02;101319.00;;;5.26;100.00
25084;BME280;13075;55.682;37.564;2023-01-24T12:30:41;101314.53;;;5.37;100.00
25084;BME280;13075;55.682;37.564;2023-01-24T12:36:44;101317.31;;;5.14;100.00
25084;BME280;13075;55.682;37.564;2023-01-24T12:39:17;101309.25;;;4.71;100.00
25084;BME280;13075;55.682;37.564;2023-01-24T12:41:51;101299.38;;;4.73;100.00
25084;BME280;13075;55.682;37.564;2023-01-24T12:44:32;101308.31;;;4.72;100.00
25084;BME280;13075;55.682;37.564;2023-01-24T12:50:24;101301.44;;;4.69;100.00
25084;BME280;13075;55.682;37.564;2023-01-24T12:53:11;101291.63;;;4.48;100.00
25084;BME280;13075;55.682;37.564;2023-01-24T13:04:11;101291.28;;;4.85;100.00
25084;BME280;13075;55.682;37.564;2023-01-24T13:09:49;101293.22;;;4.83;100.00
25084;BME280;13075;55.682;37.564;2023-01-24T13:12:27;101290.31;;;5.09;100.00
25084;BME280;13075;55.682;37.564;2023-01-24T13:15:21;101286.00;;;4.85;100.00
25084;BME280;13075;55.682;37.564;2023-01-24T13:32:12;101277.53;;;4.36;100.00
25084;BME280;13075;55.682;37.564;2023-01-24T13:34:46;101286.81;;;4.53;100.00
25084;BME280;13075;55.682;37.564;2023-01-24T13:37:19;101271.41;;;4.58;100.00
25084;BME280;13075;55.682;37.564;2023-01-24T13:39:46;101281.25;;;4.45;100.00
25084;BME280;13075;55.682;37.564;2023-01-24T13:44:38;101278.16;;;4.51;100.00
25084;BME280;13075;55.682;37.564;2023-01-24T13:49:38;101274.13;;;4.23;100.00
25084;BME280;13075;55.682;37.564;2023-01-24T13:55:00;101271.03;;;4.40;100.00
25084;BME280;13075;55.682;37.564;2023-01-24T14:00:14;101269.59;;;4.58;100.00
25084;BME280;13075;55.682;37.564;2023-01-24T14:10:40;101260.06;;;4.45;100.00
25084;BME280;13075;55.682;37.564;2023-01-24T14:16:09;101249.22;;;4.36;100.00
25084;BME280;13075;55.682;37.564;2023-01-24T14:21:04;101245.75;;;4.36;100.00
25084;BME280;13075;55.682;37.564;2023-01-24T14:23:39;101244.25;;;4.21;100.00
25084;BME280;13075;55.682;37.564;2023-01-24T14:26:05;101230.78;;;4.35;100.00
25084;BME280;13075;55.682;37.564;2023-01-24T14:28:36;101234.66;;;4.31;100.00
25084;BME280;13075;55.682;37.564;2023-01-24T14:33:45;101241.72;;;4.19;100.00
25084;BME280;13075;55.682;37.564;2023-01-24T14:41:36;101227.28;;;4.23;100.00
25084;BME280;13075;55.682;37.564;2023-01-24T14:44:02;101228.25;;;4.22;100.00
25084;BME280;13075;55.682;37.564;2023-01-24T14:46:27;101211.38;;;4.12;100.00
25084;BME280;13075;55.682;37.564;2023-01-24T14:48:53;101219.78;;;4.06;100.00
25084;BME280;13075;55.682;37.564;2023-01-24T14:51:23;101223.09;;;4.32;100.00
25084;BME280;13075;55.682;37.564;2023-01-24T14:53:53;101228.34;;;4.21;100.00
25084;BME280;13075;55.682;37.564;2023-01-24T14:56:20;101224.28;;;4.17;100.00
25084;BME280;13075;55.682;37.564;2023-01-24T14:58:47;101217.16;;;4.06;100.00
25084;BME280;13075;55.682;37.564;2023-01-24T15:01:29;101224.00;;;4.09;100.00
25084;BME280;13075;55.682;37.564;2023-01-24T15:03:57;101217.00;;;3.97;100.00
25084;BME280;13075;55.682;37.564;2023-01-24T15:06:25;101209.19;;;4.06;100.00
25084;BME280;13075;55.682;37.564;2023-01-24T15:08:58;101210.44;;;4.24;100.00
25084;BME280;13075;55.682;37.564;2023-01-24T15:11:30;101217.16;;;4.06;100.00
25084;BME280;13075;55.682;37.564;2023-01-24T15:14:05;101214.63;;;4.05;100.00
25084;BME280;13075;55.682;37.564;2023-01-24T15:16:39;101214.06;;;4.34;100.00
25084;BME280;13075;55.682;37.564;2023-01-24T15:19:21;101209.47;;;4.48;100.00
25084;BME280;13075;55.682;37.564;2023-01-24T15:21:49;101211.78;;;4.30;100.00